Norfolk, NE

3:42 PM CST on December 09, 2016 (GMT -0600)
West Central - Norfolk | | Change Station

Elev 1640 ft 42.04 °N, 97.45 °W | Updated 37 seconds ago

Snow
Snow
15.3 °F
Feels Like 7 °F
N
5.2
Wind Variable Wind from ESE
Gusts 6.9 mph

Today
High -- | Low -- °F
--% Chance of Precip.
Yesterday
High -- | Low -- °F
Precip. -- in
Pressure 30.55 in
Visibility 10.0 miles
Clouds Mostly Cloudy 5000 ft
Overcast 6000 ft
Windchill 7 °F
Dew Point 11 °F
Humidity 82%
Rainfall 0.00 in
Snow Depth Not available.
7:46 AM 4:58 PM
Waxing Gibbous, 77% visible
METAR KOFK 092056Z AUTO 13008KT 10SM BKN050 OVC060 M08/M14 A3044 RMK AO2 SLP344 T10831139 56022
Pressure 30.55 in
Visibility 10.0 miles
Clouds Mostly Cloudy 5000 ft
Overcast 6000 ft
Windchill 7 °F
Dew Point 11 °F
Humidity 82%
Rainfall 0.00 in
Snow Depth Not available.
7:46 AM 4:58 PM
Waxing Gibbous, 77% visible
METAR KOFK 092056Z AUTO 13008KT 10SM BKN050 OVC060 M08/M14 A3044 RMK AO2 SLP344 T10831139 56022

10-Day Weather Forecast

Almanac

Astronomy

Dec. 09, 2016 Rise Set
Actual Time
Civil Twilight
Nautical Twilight
Astronomical Twilight
Moon
Length of Visible Light
Length of Day
Tomorrow will be .
, % of the Moon is Illuminated

Today's Extremes

State Highs State Lows

Community

WunderPhotos

Upload Photos

1,956,517 photos uploaded!

WunderBlog® & News

Nearby

Air Quality

  Air Quality AQ Index Pollutant
Not available.

Snow Depth

Station Depth Elevation

Earthquake Activity

City Distance Mag. Time & Date
Minimum magnitude displayed is 2.5.

Coastal Water Temperatures

Place Temperature

Stations

Nearby Weather Stations

Station Location Temp. Windchill Dew Point Humidity Wind Precip. Elev Updated Type
                   

Watches & Warnings

There are currently no watches in effect.